Time;durP1;ratioP1;P1;durP2;ratioP2;P2;SDS_P1;SDS_P2;PMS_P1;PMS_P2;Temp;Humidity;BMP_temperature;BMP_pressure;BME280_temperature;BME280_humidity;BME280_pressure;Samples;Min_cycle;Max_cycle;Signal;HPM_P1;HPM_P2
2022/05/16 00:01:08;;;;;;;;;;;20.90;78.20;;;;;;4331615;33;42958;-78
2022/05/16 00:03:46;;;;;;;;;;;20.90;78.00;;;;;;4345767;33;20444;-78
2022/05/16 00:06:24;;;;;;;;;;;20.90;78.00;;;;;;4331847;33;44188;-78
2022/05/16 00:08:55;;;;;;;;;;;20.90;79.50;;;;;;4345139;33;45778;-79
2022/05/16 00:11:25;;;;;;;;;;;20.90;79.80;;;;;;4331556;33;43234;-78
2022/05/16 00:14:01;;;;;;;;;;;20.90;78.90;;;;;;4331335;33;45903;-78
2022/05/16 00:16:39;;;;;;;;;;;20.90;79.80;;;;;;4331392;33;42906;-78
2022/05/16 00:19:17;;;;;;;;;;;20.90;79.20;;;;;;4345502;33;43925;-78
2022/05/16 00:21:53;;;;;;;;;;;20.90;78.10;;;;;;4334795;33;43086;-78
2022/05/16 00:24:28;;;;;;;;;;;20.90;79.50;;;;;;4347639;33;43071;-78
2022/05/16 00:27:04;;;;;;;;;;;20.90;78.60;;;;;;4348056;33;43378;-78
2022/05/16 00:29:41;;;;;;;;;;;20.90;78.50;;;;;;4334553;33;43640;-78
2022/05/16 00:32:16;;;;;;;;;;;20.80;79.80;;;;;;4347880;33;44395;-78
2022/05/16 00:34:44;;;;;;;;;;;20.80;78.40;;;;;;4347649;33;42852;-78
2022/05/16 00:37:22;;;;;;;;;;;20.80;77.60;;;;;;4334069;33;42857;-78
2022/05/16 00:39:54;;;;;;;;;;;20.80;79.30;;;;;;4347420;33;43713;-78
2022/05/16 00:42:30;;;;;;;;;;;20.90;79.30;;;;;;4334277;33;45692;-78
2022/05/16 00:45:12;;;;;;;;;;;20.80;79.40;;;;;;4334326;33;42862;-78
2022/05/16 00:47:48;;;;;;;;;;;20.80;78.50;;;;;;4334614;33;43864;-78
2022/05/16 00:50:27;;;;;;;;;;;20.80;79.00;;;;;;4347528;33;43065;-78
2022/05/16 00:53:05;;;;;;;;;;;20.80;79.70;;;;;;4347099;33;42489;-79
2022/05/16 00:55:36;;;;;;;;;;;20.80;78.80;;;;;;4347951;33;43784;-79
2022/05/16 00:58:16;;;;;;;;;;;20.80;78.60;;;;;;4347618;33;44994;-78
2022/05/16 01:00:50;;;;;;;;;;;20.80;78.50;;;;;;4347610;33;43181;-77
2022/05/16 01:06:16;;;;;;;;;;;20.80;79.30;;;;;;4347769;33;20402;-78
2022/05/16 01:08:54;;;;;;;;;;;20.80;79.40;;;;;;4347369;33;43831;-78
2022/05/16 01:11:30;;;;;;;;;;;20.80;77.70;;;;;;4347314;33;42435;-78
2022/05/16 01:14:08;;;;;;;;;;;20.80;79.10;;;;;;4334059;33;43730;-79
2022/05/16 01:16:47;;;;;;;;;;;20.70;78.00;;;;;;4347556;33;43795;-79
2022/05/16 01:19:15;;;;;;;;;;;20.70;77.80;;;;;;4333623;33;42529;-79
2022/05/16 01:21:48;;;;;;;;;;;20.70;78.40;;;;;;4346872;33;43047;-79
2022/05/16 01:24:25;;;;;;;;;;;20.70;79.40;;;;;;4347128;33;45777;-79
2022/05/16 01:27:00;;;;;;;;;;;20.70;78.60;;;;;;4346977;33;42818;-79
2022/05/16 01:29:38;;;;;;;;;;;20.70;77.70;;;;;;4347253;33;43030;-79
2022/05/16 01:32:16;;;;;;;;;;;20.70;78.90;;;;;;4346555;33;44625;-78
2022/05/16 01:34:52;;;;;;;;;;;20.70;77.90;;;;;;4333757;33;44307;-78
2022/05/16 01:38:18;;;;;;;;;;;20.70;78.30;;;;;;4347307;33;43696;-79
2022/05/16 01:40:23;;;;;;;;;;;20.70;79.10;;;;;;4346237;33;43708;-78
2022/05/16 01:42:50;;;;;;;;;;;20.70;78.70;;;;;;4346763;33;43950;-79
2022/05/16 01:45:28;;;;;;;;;;;20.70;78.80;;;;;;4333261;33;43789;-79
2022/05/16 01:48:06;;;;;;;;;;;20.70;79.30;;;;;;4333602;33;44954;-79
2022/05/16 01:50:42;;;;;;;;;;;20.60;78.60;;;;;;4333548;33;44521;-78
2022/05/16 01:53:26;;;;;;;;;;;20.60;79.50;;;;;;4333267;33;43756;-79
2022/05/16 01:56:04;;;;;;;;;;;20.60;78.90;;;;;;4332993;33;43084;-78
2022/05/16 01:58:45;;;;;;;;;;;20.60;79.30;;;;;;4333347;33;44239;-79
2022/05/16 02:01:23;;;;;;;;;;;20.60;78.10;;;;;;4346649;33;42942;-78
2022/05/16 02:04:01;;;;;;;;;;;20.60;79.40;;;;;;4333359;33;43614;-78
2022/05/16 02:06:43;;;;;;;;;;;20.60;79.20;;;;;;4333797;33;21104;-79
2022/05/16 02:09:18;;;;;;;;;;;20.60;79.20;;;;;;4346144;33;42768;-79
2022/05/16 02:11:45;;;;;;;;;;;20.60;79.60;;;;;;4346623;33;44776;-78
2022/05/16 02:14:23;;;;;;;;;;;20.60;79.30;;;;;;4332865;33;43037;-78
2022/05/16 02:17:01;;;;;;;;;;;20.60;79.20;;;;;;4346515;33;43120;-79
2022/05/16 02:19:34;;;;;;;;;;;20.60;78.80;;;;;;4346112;33;42942;-79
2022/05/16 02:25:04;;;;;;;;;;;20.50;79.30;;;;;;4345863;33;43615;-78
2022/05/16 02:27:43;;;;;;;;;;;20.50;79.80;;;;;;4332789;33;42616;-78
2022/05/16 02:30:21;;;;;;;;;;;20.50;79.80;;;;;;4346426;33;43027;-78
2022/05/16 02:32:57;;;;;;;;;;;20.50;79.30;;;;;;4345743;33;43494;-79
2022/05/16 02:35:24;;;;;;;;;;;20.50;79.20;;;;;;4346229;33;45853;-78
2022/05/16 02:38:00;;;;;;;;;;;20.50;79.30;;;;;;4333127;33;24867;-78
2022/05/16 02:40:38;;;;;;;;;;;20.50;79.70;;;;;;4346225;33;43135;-78
2022/05/16 02:43:14;;;;;;;;;;;20.50;79.60;;;;;;4345337;33;43478;-78
2022/05/16 02:45:55;;;;;;;;;;;20.50;79.40;;;;;;4332516;33;42859;-78
2022/05/16 02:48:30;;;;;;;;;;;20.40;79.20;;;;;;4345558;33;43249;-78
2022/05/16 02:51:11;;;;;;;;;;;20.40;80.30;;;;;;4333173;33;43170;-78
2022/05/16 02:53:49;;;;;;;;;;;20.40;79.40;;;;;;4332434;33;42226;-78
2022/05/16 02:56:19;;;;;;;;;;;20.40;79.40;;;;;;4332981;33;42893;-78
2022/05/16 02:58:57;;;;;;;;;;;20.40;79.50;;;;;;4332110;33;45760;-78
2022/05/16 03:01:34;;;;;;;;;;;20.40;80.30;;;;;;4332497;33;44061;-77
2022/05/16 03:04:12;;;;;;;;;;;20.40;79.70;;;;;;4345843;33;43138;-78
2022/05/16 03:06:53;;;;;;;;;;;20.40;79.50;;;;;;4332254;33;42486;-78
2022/05/16 03:09:32;;;;;;;;;;;20.40;80.00;;;;;;4332704;33;19992;-78
2022/05/16 03:12:10;;;;;;;;;;;20.30;80.00;;;;;;4345501;33;43491;-78
2022/05/16 03:14:48;;;;;;;;;;;20.30;80.30;;;;;;4345740;33;44807;-78
2022/05/16 03:17:29;;;;;;;;;;;20.30;80.40;;;;;;4332264;33;45692;-78
2022/05/16 03:20:05;;;;;;;;;;;20.30;81.10;;;;;;4345357;33;42824;-77
2022/05/16 03:22:41;;;;;;;;;;;20.30;81.00;;;;;;4345784;33;43026;-78
2022/05/16 03:25:09;;;;;;;;;;;20.30;81.10;;;;;;4345698;33;45874;-77
2022/05/16 03:27:42;;;;;;;;;;;20.30;81.40;;;;;;4345517;33;43055;-77
2022/05/16 03:30:15;;;;;;;;;;;20.30;81.00;;;;;;4331829;33;42953;-78
2022/05/16 03:32:56;;;;;;;;;;;20.40;81.20;;;;;;4345471;33;43856;-78
2022/05/16 03:35:29;;;;;;;;;;;20.30;81.90;;;;;;4332086;33;42766;-78
2022/05/16 03:40:41;;;;;;;;;;;20.30;81.40;;;;;;4332420;33;44233;-78
2022/05/16 03:41:06;;;;;;;;;;;20.30;82.00;;;;;;4345772;33;20358;-78
2022/05/16 03:43:37;;;;;;;;;;;20.30;82.30;;;;;;4331780;33;43523;-78
2022/05/16 03:46:07;;;;;;;;;;;20.30;82.40;;;;;;4331985;33;43233;-77
2022/05/16 03:48:46;;;;;;;;;;;20.30;82.30;;;;;;4331979;33;43770;-78
2022/05/16 03:51:24;;;;;;;;;;;20.30;82.40;;;;;;4345402;33;43921;-78
2022/05/16 03:54:02;;;;;;;;;;;20.30;83.30;;;;;;4345192;33;43095;-78
2022/05/16 03:56:41;;;;;;;;;;;20.30;83.20;;;;;;4331549;33;42504;-79
2022/05/16 03:59:16;;;;;;;;;;;20.30;83.40;;;;;;4331938;33;44325;-78
2022/05/16 04:01:55;;;;;;;;;;;20.30;83.30;;;;;;4331305;33;43493;-78
2022/05/16 04:04:22;;;;;;;;;;;20.30;83.70;;;;;;4331704;33;43734;-78
2022/05/16 04:06:57;;;;;;;;;;;20.30;84.00;;;;;;4331627;33;43020;-77
2022/05/16 04:09:33;;;;;;;;;;;20.30;83.70;;;;;;4345192;33;43063;-77
2022/05/16 04:12:11;;;;;;;;;;;20.30;83.50;;;;;;4332712;33;20470;-77
2022/05/16 04:14:49;;;;;;;;;;;20.30;83.60;;;;;;4331704;33;42846;-77
2022/05/16 04:17:25;;;;;;;;;;;20.30;84.00;;;;;;4344691;33;42619;-77
2022/05/16 04:20:03;;;;;;;;;;;20.30;84.00;;;;;;4332166;33;43928;-77
2022/05/16 04:22:36;;;;;;;;;;;20.30;84.00;;;;;;4345196;33;42105;-78
2022/05/16 04:25:14;;;;;;;;;;;20.30;83.80;;;;;;4332279;33;43810;-77
2022/05/16 04:27:54;;;;;;;;;;;20.30;83.80;;;;;;4332039;33;42850;-77
2022/05/16 04:30:35;;;;;;;;;;;20.30;84.00;;;;;;4331577;33;43897;-77
2022/05/16 04:33:03;;;;;;;;;;;20.20;83.80;;;;;;4344848;33;43498;-77
2022/05/16 04:35:38;;;;;;;;;;;20.30;84.00;;;;;;4344803;33;43752;-77
2022/05/16 04:38:13;;;;;;;;;;;20.20;84.10;;;;;;4344984;33;45764;-77
2022/05/16 04:43:39;;;;;;;;;;;20.20;84.70;;;;;;4345365;33;19997;-77
2022/05/16 04:46:17;;;;;;;;;;;20.20;84.70;;;;;;4331611;33;42070;-77
2022/05/16 04:48:50;;;;;;;;;;;20.20;85.20;;;;;;4344888;33;44187;-77
2022/05/16 04:51:25;;;;;;;;;;;20.20;85.70;;;;;;4331190;33;42088;-78
2022/05/16 04:53:55;;;;;;;;;;;20.20;86.00;;;;;;4331148;33;42861;-78
2022/05/16 04:56:30;;;;;;;;;;;20.20;85.70;;;;;;4331205;33;43738;-77
2022/05/16 04:59:08;;;;;;;;;;;20.20;85.60;;;;;;4344918;33;43730;-77
2022/05/16 05:01:44;;;;;;;;;;;20.20;85.30;;;;;;4344636;33;44133;-78
2022/05/16 05:04:19;;;;;;;;;;;20.20;85.10;;;;;;4344647;33;42197;-77
2022/05/16 05:06:54;;;;;;;;;;;20.20;85.50;;;;;;4346127;33;44235;-77
2022/05/16 05:09:33;;;;;;;;;;;20.20;86.30;;;;;;4334190;33;42751;-77
2022/05/16 05:15:14;;;;;;;;;;;20.20;86.00;;;;;;4347546;33;43141;-77
2022/05/16 05:17:42;;;;;;;;;;;20.20;86.40;;;;;;4347495;33;44215;-77
2022/05/16 05:20:18;;;;;;;;;;;20.20;86.50;;;;;;4347249;33;44278;-77
2022/05/16 05:22:54;;;;;;;;;;;20.20;86.40;;;;;;4333984;33;43744;-77
2022/05/16 05:25:26;;;;;;;;;;;20.20;86.70;;;;;;4347244;33;43081;-77
2022/05/16 05:28:07;;;;;;;;;;;20.20;87.20;;;;;;4347249;33;44184;-78
2022/05/16 05:30:40;;;;;;;;;;;20.20;87.60;;;;;;4333857;33;42550;-77
2022/05/16 05:33:19;;;;;;;;;;;20.20;87.70;;;;;;4347013;33;42031;-77
2022/05/16 05:35:54;;;;;;;;;;;20.20;87.90;;;;;;4347158;33;45733;-77
2022/05/16 05:38:33;;;;;;;;;;;20.20;87.90;;;;;;4346653;33;42875;-77
2022/05/16 05:41:05;;;;;;;;;;;20.20;88.10;;;;;;4346907;33;42657;-78
2022/05/16 05:43:36;;;;;;;;;;;20.10;88.20;;;;;;4346974;33;42899;-77
2022/05/16 05:46:11;;;;;;;;;;;20.20;88.40;;;;;;4333283;33;42986;-78
2022/05/16 05:48:44;;;;;;;;;;;20.20;88.50;;;;;;4346430;33;42871;-78
2022/05/16 05:51:15;;;;;;;;;;;20.20;89.00;;;;;;4346825;33;44317;-78
2022/05/16 05:53:56;;;;;;;;;;;20.20;89.10;;;;;;4333328;33;44982;-78
2022/05/16 05:56:29;;;;;;;;;;;20.20;89.20;;;;;;4346384;33;42883;-79
2022/05/16 05:59:08;;;;;;;;;;;20.20;89.30;;;;;;4346492;33;43383;-78
2022/05/16 06:01:41;;;;;;;;;;;20.10;89.60;;;;;;4346610;33;43716;-78
2022/05/16 06:04:13;;;;;;;;;;;20.10;89.60;;;;;;4333778;33;43179;-77
2022/05/16 06:06:46;;;;;;;;;;;20.10;89.90;;;;;;4346775;33;44332;-78
2022/05/16 06:09:24;;;;;;;;;;;20.20;90.00;;;;;;4332886;33;42658;-77
2022/05/16 06:12:00;;;;;;;;;;;20.20;90.10;;;;;;4333186;33;42131;-78
2022/05/16 06:14:35;;;;;;;;;;;20.20;90.10;;;;;;4346550;33;43657;-78
2022/05/16 06:17:08;;;;;;;;;;;20.10;90.10;;;;;;4347574;33;20005;-78
2022/05/16 06:19:46;;;;;;;;;;;20.10;90.30;;;;;;4333522;33;45720;-77
2022/05/16 06:22:24;;;;;;;;;;;20.10;90.40;;;;;;4346551;33;44195;-77
2022/05/16 06:27:49;;;;;;;;;;;20.10;90.60;;;;;;4346532;33;43769;-77
2022/05/16 06:30:27;;;;;;;;;;;20.10;90.70;;;;;;4333013;33;43831;-77
2022/05/16 06:33:00;;;;;;;;;;;20.20;90.60;;;;;;4332927;33;42578;-77
2022/05/16 06:35:27;;;;;;;;;;;20.20;90.80;;;;;;4332655;33;42892;-77
2022/05/16 06:38:03;;;;;;;;;;;20.20;90.80;;;;;;4345668;33;42883;-77
2022/05/16 06:40:38;;;;;;;;;;;20.20;90.80;;;;;;4332884;33;44909;-77
2022/05/16 06:43:11;;;;;;;;;;;20.20;91.00;;;;;;4332395;33;42463;-77
2022/05/16 06:45:42;;;;;;;;;;;20.20;91.20;;;;;;4346204;33;44433;-77
2022/05/16 06:48:12;;;;;;;;;;;20.20;91.20;;;;;;4333179;33;20008;-76
2022/05/16 06:50:41;;;;;;;;;;;20.20;91.10;;;;;;4346154;33;44333;-77
2022/05/16 06:53:16;;;;;;;;;;;20.20;91.20;;;;;;4332830;33;43686;-77
2022/05/16 06:55:44;;;;;;;;;;;20.20;91.40;;;;;;4332400;33;42688;-78
2022/05/16 06:58:14;;;;;;;;;;;20.20;91.50;;;;;;4346069;33;43684;-77
2022/05/16 07:00:47;;;;;;;;;;;20.20;91.70;;;;;;4345736;33;43823;-77
2022/05/16 07:03:25;;;;;;;;;;;20.20;91.70;;;;;;4345268;33;43652;-77
2022/05/16 07:06:01;;;;;;;;;;;20.20;92.00;;;;;;4345647;33;43196;-77
2022/05/16 07:08:34;;;;;;;;;;;20.20;92.00;;;;;;4332654;33;43953;-78
2022/05/16 07:11:07;;;;;;;;;;;20.30;92.10;;;;;;4345661;33;42889;-77
2022/05/16 07:13:40;;;;;;;;;;;20.30;92.30;;;;;;4345706;33;43661;-77
2022/05/16 07:16:08;;;;;;;;;;;20.30;92.50;;;;;;4332167;33;43925;-78
2022/05/16 07:18:46;;;;;;;;;;;20.30;92.60;;;;;;4346285;33;20017;-77
2022/05/16 07:21:13;;;;;;;;;;;20.30;92.40;;;;;;4345858;33;43471;-77
2022/05/16 07:23:48;;;;;;;;;;;20.30;92.50;;;;;;4332204;33;44280;-77
2022/05/16 07:29:12;;;;;;;;;;;20.40;92.70;;;;;;4344939;33;42480;-77
2022/05/16 07:31:46;;;;;;;;;;;20.40;92.90;;;;;;4345087;33;42835;-77
2022/05/16 07:34:21;;;;;;;;;;;20.40;93.00;;;;;;4332108;33;43077;-79
2022/05/16 07:36:57;;;;;;;;;;;20.40;92.80;;;;;;4332293;33;43358;-78
2022/05/16 07:39:28;;;;;;;;;;;20.50;92.80;;;;;;4345451;33;44197;-78
2022/05/16 07:42:00;;;;;;;;;;;20.50;93.10;;;;;;4332576;33;45150;-79
2022/05/16 07:44:33;;;;;;;;;;;20.50;92.80;;;;;;4332232;33;43602;-78
2022/05/16 07:47:00;;;;;;;;;;;20.50;92.80;;;;;;4332172;33;45802;-79
2022/05/16 07:49:30;;;;;;;;;;;20.50;92.80;;;;;;4346124;33;20009;-77
2022/05/16 07:52:08;;;;;;;;;;;20.50;93.00;;;;;;4331797;33;43029;-78
2022/05/16 07:54:38;;;;;;;;;;;20.60;93.10;;;;;;4345237;33;43892;-77
2022/05/16 07:57:13;;;;;;;;;;;20.60;93.30;;;;;;4332281;33;43999;-76
2022/05/16 07:59:46;;;;;;;;;;;20.60;93.40;;;;;;4332257;33;43649;-76
2022/05/16 08:02:19;;;;;;;;;;;20.70;93.60;;;;;;4331811;33;42991;-78
2022/05/16 08:04:46;;;;;;;;;;;20.60;93.40;;;;;;4345537;33;44195;-79
2022/05/16 08:07:27;;;;;;;;;;;20.70;93.50;;;;;;4331942;33;44682;-77
2022/05/16 08:12:48;;;;;;;;;;;20.70;93.50;;;;;;4345285;33;43762;-77
2022/05/16 08:15:21;;;;;;;;;;;20.80;93.30;;;;;;4331404;33;43282;-79
2022/05/16 08:18:05;;;;;;;;;;;20.80;93.30;;;;;;4331597;33;45057;-79
2022/05/16 08:20:42;;;;;;;;;;;20.80;93.80;;;;;;4332660;33;20031;-79
2022/05/16 08:23:22;;;;;;;;;;;20.80;93.70;;;;;;4344699;33;42921;-79
2022/05/16 08:26:01;;;;;;;;;;;20.80;93.50;;;;;;4331881;33;43047;-79
2022/05/16 08:28:37;;;;;;;;;;;20.80;93.40;;;;;;4345068;33;42690;-79
2022/05/16 08:31:05;;;;;;;;;;;20.80;93.40;;;;;;4331663;33;44169;-80
2022/05/16 08:33:40;;;;;;;;;;;20.80;93.50;;;;;;4344571;33;43506;-79
2022/05/16 08:41:56;;;;;;;;;;;20.80;93.60;;;;;;4346264;33;45787;-78
2022/05/16 08:44:35;;;;;;;;;;;20.80;93.40;;;;;;4347152;33;45983;-78
2022/05/16 08:47:11;;;;;;;;;;;20.80;93.60;;;;;;4347880;33;43241;-78
2022/05/16 08:49:50;;;;;;;;;;;20.80;94.40;;;;;;4334389;33;44629;-79
2022/05/16 08:52:23;;;;;;;;;;;20.80;94.30;;;;;;4347883;33;42985;-79
2022/05/16 08:54:55;;;;;;;;;;;20.80;94.50;;;;;;4334255;33;44222;-79
2022/05/16 08:57:31;;;;;;;;;;;20.80;94.70;;;;;;4347834;33;45824;-79
2022/05/16 09:00:09;;;;;;;;;;;20.90;94.80;;;;;;4347542;33;45001;-80
2022/05/16 09:02:42;;;;;;;;;;;20.90;94.80;;;;;;4331353;33;44591;-79
2022/05/16 09:05:21;;;;;;;;;;;20.90;94.80;;;;;;4331910;33;45642;-79
2022/05/16 09:07:56;;;;;;;;;;;20.80;94.90;;;;;;4332801;33;45559;-79
2022/05/16 09:10:38;;;;;;;;;;;20.90;94.90;;;;;;4332744;33;44324;-79
2022/05/16 09:13:05;;;;;;;;;;;20.90;94.70;;;;;;4332489;33;42523;-79
2022/05/16 09:15:46;;;;;;;;;;;20.90;95.00;;;;;;4332242;33;44179;-80
2022/05/16 09:18:43;;;;;;;;;;;20.90;95.30;;;;;;4331520;33;44221;-79
2022/05/16 09:21:22;;;;;;;;;;;20.90;95.40;;;;;;4330235;33;20010;-80
2022/05/16 09:24:21;;;;;;;;;;;20.90;95.50;;;;;;4332649;33;43981;-79
2022/05/16 09:30:17;;;;;;;;;;;21.00;95.70;;;;;;4287482;33;43891;-81
2022/05/16 09:32:48;;;;;;;;;;;21.00;95.60;;;;;;4342545;33;43469;-79
2022/05/16 09:35:33;;;;;;;;;;;21.00;95.80;;;;;;4331024;33;45848;-78
2022/05/16 09:38:07;;;;;;;;;;;21.10;96.00;;;;;;4331389;33;43474;-80
2022/05/16 09:40:45;;;;;;;;;;;21.10;96.00;;;;;;4332487;33;43039;-81
2022/05/16 09:43:19;;;;;;;;;;;21.10;96.00;;;;;;4332321;33;44736;-80
2022/05/16 09:45:51;;;;;;;;;;;21.10;96.20;;;;;;4332304;33;43269;-79
2022/05/16 09:48:27;;;;;;;;;;;21.10;96.30;;;;;;4332266;33;44732;-79
2022/05/16 09:50:58;;;;;;;;;;;21.10;96.20;;;;;;4330706;33;42863;-79
2022/05/16 09:53:31;;;;;;;;;;;21.10;96.50;;;;;;4332516;33;20366;-79
2022/05/16 09:56:03;;;;;;;;;;;21.10;96.60;;;;;;4331942;33;43020;-78
2022/05/16 09:58:39;;;;;;;;;;;21.10;96.40;;;;;;4330541;33;42578;-79
2022/05/16 10:01:11;;;;;;;;;;;21.10;96.80;;;;;;4332223;33;44171;-79
2022/05/16 10:03:41;;;;;;;;;;;21.10;96.90;;;;;;4331028;33;44171;-78
2022/05/16 10:06:25;;;;;;;;;;;21.10;96.90;;;;;;4330841;33;45884;-79
2022/05/16 10:09:07;;;;;;;;;;;21.20;97.00;;;;;;4331945;33;43005;-78
2022/05/16 10:11:38;;;;;;;;;;;21.10;97.10;;;;;;4331436;33;44035;-79
2022/05/16 10:14:14;;;;;;;;;;;21.20;97.10;;;;;;4330570;33;44052;-79
2022/05/16 10:16:45;;;;;;;;;;;21.10;97.00;;;;;;4330359;33;43394;-79
2022/05/16 10:19:18;;;;;;;;;;;21.20;97.00;;;;;;4330575;33;43874;-77
2022/05/16 10:22:01;;;;;;;;;;;21.20;97.10;;;;;;4331475;33;42930;-78
2022/05/16 10:24:34;;;;;;;;;;;21.20;97.30;;;;;;4331597;33;43560;-79
2022/05/16 10:27:09;;;;;;;;;;;21.10;97.20;;;;;;4330383;33;43753;-80
2022/05/16 10:29:47;;;;;;;;;;;21.10;97.10;;;;;;4330648;33;43347;-79
2022/05/16 10:35:20;;;;;;;;;;;21.10;97.20;;;;;;4331518;33;42944;-79
2022/05/16 10:37:56;;;;;;;;;;;21.10;97.00;;;;;;4330544;33;43573;-79
2022/05/16 10:40:32;;;;;;;;;;;21.10;97.10;;;;;;4331393;33;42495;-79
2022/05/16 10:43:15;;;;;;;;;;;21.10;97.20;;;;;;4331326;33;42315;-81
2022/05/16 10:45:47;;;;;;;;;;;21.10;97.30;;;;;;4331410;33;43919;-80
2022/05/16 10:48:36;;;;;;;;;;;21.10;97.30;;;;;;4331643;33;43728;-79
2022/05/16 10:51:07;;;;;;;;;;;21.10;97.10;;;;;;4330998;33;43382;-79
2022/05/16 10:54:00;;;;;;;;;;;21.10;97.20;;;;;;4330025;33;42502;-79
2022/05/16 10:56:31;;;;;;;;;;;21.00;97.30;;;;;;4325677;33;20445;-78
2022/05/16 10:59:20;;;;;;;;;;;21.00;97.30;;;;;;4330732;33;42902;-79
2022/05/16 11:01:54;;;;;;;;;;;21.00;97.40;;;;;;4333070;33;44016;-79
2022/05/16 11:04:33;;;;;;;;;;;21.00;97.30;;;;;;4345449;33;43969;-79
2022/05/16 11:07:20;;;;;;;;;;;21.00;97.50;;;;;;4332405;33;43639;-79
2022/05/16 11:09:47;;;;;;;;;;;21.00;97.50;;;;;;4345868;33;46087;-79
2022/05/16 11:12:38;;;;;;;;;;;21.00;97.90;;;;;;4332229;33;43692;-78
2022/05/16 11:15:12;;;;;;;;;;;21.00;97.80;;;;;;4345581;33;44768;-79
2022/05/16 11:18:01;;;;;;;;;;;21.00;97.70;;;;;;4345781;33;44176;-80
2022/05/16 11:20:42;;;;;;;;;;;21.00;97.50;;;;;;4332545;33;43184;-79
2022/05/16 11:23:27;;;;;;;;;;;21.00;97.70;;;;;;4345501;33;43688;-78
2022/05/16 11:26:04;;;;;;;;;;;21.00;97.80;;;;;;4332479;33;42977;-79
2022/05/16 11:28:32;;;;;;;;;;;21.00;97.70;;;;;;4345152;33;42450;-79
2022/05/16 11:31:08;;;;;;;;;;;21.00;97.70;;;;;;4331848;33;43946;-80
2022/05/16 11:33:40;;;;;;;;;;;21.00;97.80;;;;;;4345465;33;45649;-79
2022/05/16 11:36:26;;;;;;;;;;;21.00;97.80;;;;;;4345263;33;42866;-79
2022/05/16 11:39:10;;;;;;;;;;;21.00;97.90;;;;;;4344977;33;44195;-79
2022/05/16 11:41:50;;;;;;;;;;;21.00;97.80;;;;;;4331815;33;42651;-79
2022/05/16 11:44:33;;;;;;;;;;;21.00;97.90;;;;;;4345209;33;43724;-79
2022/05/16 11:47:21;;;;;;;;;;;21.00;97.80;;;;;;4344852;33;42148;-79
2022/05/16 11:50:08;;;;;;;;;;;21.00;97.60;;;;;;4345039;33;44848;-80
2022/05/16 11:53:11;;;;;;;;;;;21.00;97.50;;;;;;4345533;33;45995;-79
2022/05/16 12:01:36;;;;;;;;;;;21.00;97.20;;;;;;4345408;33;43025;-79
2022/05/16 12:04:12;;;;;;;;;;;21.00;97.50;;;;;;4331939;33;44411;-79
2022/05/16 12:06:53;;;;;;;;;;;21.00;97.50;;;;;;4345342;33;43274;-79
2022/05/16 12:09:32;;;;;;;;;;;20.90;97.50;;;;;;4332136;33;44207;-79
2022/05/16 12:12:02;;;;;;;;;;;20.90;97.60;;;;;;4331721;33;44006;-79
2022/05/16 12:14:36;;;;;;;;;;;20.90;97.60;;;;;;4345111;33;42849;-78
2022/05/16 12:17:24;;;;;;;;;;;20.90;97.50;;;;;;4334834;33;43916;-79
2022/05/16 12:19:59;;;;;;;;;;;20.90;97.50;;;;;;4348322;33;43878;-79
2022/05/16 12:22:32;;;;;;;;;;;20.90;97.40;;;;;;4348123;33;44275;-79
2022/05/16 12:25:03;;;;;;;;;;;20.90;97.40;;;;;;4334442;33;44293;-79
2022/05/16 12:27:48;;;;;;;;;;;20.90;97.40;;;;;;4347833;33;42145;-79
2022/05/16 12:30:38;;;;;;;;;;;20.90;97.40;;;;;;4335745;33;20105;-79
2022/05/16 12:33:29;;;;;;;;;;;20.90;97.20;;;;;;4327816;33;44392;-79
2022/05/16 12:35:56;;;;;;;;;;;20.80;97.20;;;;;;4341034;33;45847;-79
2022/05/16 12:38:27;;;;;;;;;;;20.80;97.20;;;;;;4347917;33;44779;-79
2022/05/16 12:41:12;;;;;;;;;;;20.80;97.40;;;;;;4347800;33;43555;-79
2022/05/16 12:44:01;;;;;;;;;;;20.80;97.30;;;;;;4334466;33;42779;-79
2022/05/16 12:46:47;;;;;;;;;;;20.80;97.10;;;;;;4334609;33;43706;-79
2022/05/16 12:49:34;;;;;;;;;;;20.90;97.20;;;;;;4347662;33;43008;-79
2022/05/16 12:52:11;;;;;;;;;;;20.80;97.20;;;;;;4334461;33;43486;-79
2022/05/16 12:54:56;;;;;;;;;;;20.80;97.20;;;;;;4347650;33;43700;-79
2022/05/16 12:57:42;;;;;;;;;;;20.80;97.10;;;;;;4334109;33;43584;-79
2022/05/16 13:00:26;;;;;;;;;;;20.80;97.30;;;;;;4333892;33;44090;-78
2022/05/16 13:03:06;;;;;;;;;;;20.80;97.50;;;;;;4334227;33;44188;-79
2022/05/16 13:05:36;;;;;;;;;;;20.90;97.50;;;;;;4334448;33;46045;-79
2022/05/16 13:08:26;;;;;;;;;;;20.90;97.60;;;;;;4336659;33;45682;-79
2022/05/16 13:11:03;;;;;;;;;;;20.90;97.60;;;;;;4333640;33;45838;-79
2022/05/16 13:13:33;;;;;;;;;;;20.90;97.60;;;;;;4347081;33;43295;-79
2022/05/16 13:16:11;;;;;;;;;;;20.90;97.80;;;;;;4333885;33;42915;-79
2022/05/16 13:18:53;;;;;;;;;;;20.90;97.60;;;;;;4334015;33;45048;-79
2022/05/16 13:21:36;;;;;;;;;;;20.90;97.40;;;;;;4347336;33;43433;-79
2022/05/16 13:24:10;;;;;;;;;;;20.90;97.60;;;;;;4333570;33;42602;-79
2022/05/16 13:29:49;;;;;;;;;;;20.90;97.60;;;;;;4347300;33;43450;-80
2022/05/16 13:32:29;;;;;;;;;;;20.90;97.80;;;;;;4333952;33;42828;-79
2022/05/16 13:35:01;;;;;;;;;;;20.90;97.70;;;;;;4333873;33;44220;-79
2022/05/16 13:37:37;;;;;;;;;;;20.90;97.40;;;;;;4334123;33;43843;-79
2022/05/16 13:40:18;;;;;;;;;;;20.90;97.50;;;;;;4346868;33;45446;-78
2022/05/16 13:42:57;;;;;;;;;;;20.90;97.40;;;;;;4334063;33;44065;-79
2022/05/16 13:45:39;;;;;;;;;;;20.90;97.30;;;;;;4347131;33;43557;-79
2022/05/16 13:48:15;;;;;;;;;;;20.90;97.10;;;;;;4346527;33;42946;-79
2022/05/16 13:50:43;;;;;;;;;;;20.90;97.10;;;;;;4346470;33;42896;-79
2022/05/16 13:53:20;;;;;;;;;;;20.90;97.20;;;;;;4333762;33;43937;-78
2022/05/16 13:55:56;;;;;;;;;;;20.90;97.50;;;;;;4346505;33;43485;-79
2022/05/16 13:58:30;;;;;;;;;;;20.90;97.20;;;;;;4333559;33;45636;-79
2022/05/16 14:01:19;;;;;;;;;;;20.90;97.20;;;;;;4333656;33;43792;-79
2022/05/16 14:04:09;;;;;;;;;;;20.90;97.10;;;;;;4333778;33;20064;-79
2022/05/16 14:06:46;;;;;;;;;;;20.90;96.80;;;;;;4333314;33;43491;-79
2022/05/16 14:09:29;;;;;;;;;;;20.90;96.90;;;;;;4333699;33;44929;-78
2022/05/16 14:12:02;;;;;;;;;;;20.90;96.90;;;;;;4332971;33;43526;-78
2022/05/16 14:14:38;;;;;;;;;;;20.90;96.80;;;;;;4333488;33;43564;-79
2022/05/16 14:17:28;;;;;;;;;;;20.90;96.90;;;;;;4333042;33;45096;-79
2022/05/16 14:19:56;;;;;;;;;;;20.90;96.80;;;;;;4346578;33;43179;-79
2022/05/16 14:22:30;;;;;;;;;;;20.90;96.60;;;;;;4332838;33;41939;-79
2022/05/16 14:25:05;;;;;;;;;;;20.90;96.60;;;;;;4346157;33;42174;-79
2022/05/16 14:27:37;;;;;;;;;;;20.90;96.60;;;;;;4345988;33;43979;-79
2022/05/16 14:30:13;;;;;;;;;;;20.90;96.60;;;;;;4333213;33;43203;-79
2022/05/16 14:33:01;;;;;;;;;;;20.90;96.70;;;;;;4332978;33;43830;-79
2022/05/16 14:35:31;;;;;;;;;;;20.90;96.60;;;;;;4332561;33;42455;-79
2022/05/16 14:38:06;;;;;;;;;;;20.90;96.60;;;;;;4345926;33;45959;-78
2022/05/16 14:40:38;;;;;;;;;;;20.90;96.60;;;;;;4333249;33;42926;-79
2022/05/16 14:43:13;;;;;;;;;;;20.90;96.60;;;;;;4345774;33;44302;-79
2022/05/16 14:48:53;;;;;;;;;;;21.00;96.40;;;;;;4345549;33;42882;-78
2022/05/16 14:51:29;;;;;;;;;;;21.00;96.10;;;;;;4345930;33;45168;-79
2022/05/16 14:54:00;;;;;;;;;;;21.00;96.10;;;;;;4332283;33;44196;-76
2022/05/16 14:56:37;;;;;;;;;;;21.00;96.10;;;;;;4345811;33;42930;-79
2022/05/16 14:59:09;;;;;;;;;;;21.00;96.10;;;;;;4332183;33;43708;-79
2022/05/16 15:04:39;;;;;;;;;;;21.00;95.90;;;;;;4293811;33;20026;-80
2022/05/16 15:07:07;;;;;;;;;;;21.00;96.00;;;;;;4345635;33;41929;-79
2022/05/16 15:09:39;;;;;;;;;;;21.00;96.00;;;;;;4332393;33;42435;-78
2022/05/16 15:12:12;;;;;;;;;;;21.00;96.00;;;;;;4345770;33;43855;-77
2022/05/16 15:14:50;;;;;;;;;;;21.00;95.50;;;;;;4331967;33;42956;-78
2022/05/16 15:17:18;;;;;;;;;;;21.00;95.50;;;;;;4345469;33;42498;-77
2022/05/16 15:19:51;;;;;;;;;;;21.00;95.40;;;;;;4332248;33;44200;-76
2022/05/16 15:22:24;;;;;;;;;;;21.00;95.40;;;;;;4332665;33;43663;-77
2022/05/16 15:24:55;;;;;;;;;;;21.00;95.50;;;;;;4332488;33;43699;-77
2022/05/16 15:27:25;;;;;;;;;;;21.00;95.10;;;;;;4345734;33;44380;-78
2022/05/16 15:29:55;;;;;;;;;;;21.00;95.10;;;;;;4332108;33;44327;-77
2022/05/16 15:32:24;;;;;;;;;;;21.00;95.10;;;;;;4331795;33;42162;-76
2022/05/16 15:34:51;;;;;;;;;;;21.00;94.90;;;;;;4346486;33;20394;-77
2022/05/16 15:37:23;;;;;;;;;;;21.00;94.90;;;;;;4331594;33;44168;-77
2022/05/16 15:39:57;;;;;;;;;;;21.00;95.10;;;;;;4332070;33;43952;-77
2022/05/16 15:42:26;;;;;;;;;;;21.10;94.90;;;;;;4332281;33;43547;-78
2022/05/16 15:45:01;;;;;;;;;;;21.10;94.80;;;;;;4345518;33;43571;-77
2022/05/16 15:47:30;;;;;;;;;;;21.00;94.90;;;;;;4332090;33;43097;-77
2022/05/16 15:50:00;;;;;;;;;;;21.00;95.10;;;;;;4345040;33;43855;-78
2022/05/16 15:52:28;;;;;;;;;;;21.10;94.90;;;;;;4344946;33;44083;-76
2022/05/16 15:54:58;;;;;;;;;;;21.10;94.80;;;;;;4331634;33;43093;-77